sensor_id;sensor_type;location;lat;lon;timestamp;pressure;altitude;pressure_sealevel;temperature;humidity
60019;BME280;45870;42.528;26.740;2023-06-22T00:00:49;99846.72;;;25.47;47.25
60019;BME280;45870;42.528;26.740;2023-06-22T00:03:15;99871.38;;;26.16;46.36
60019;BME280;45870;42.528;26.740;2023-06-22T00:05:40;99873.84;;;26.00;46.87
60019;BME280;45870;42.528;26.740;2023-06-22T00:08:06;99870.78;;;26.02;46.43
60019;BME280;45870;42.528;26.740;2023-06-22T00:10:32;99879.47;;;26.29;45.43
60019;BME280;45870;42.528;26.740;2023-06-22T00:12:57;99878.31;;;26.60;45.17
60019;BME280;45870;42.528;26.740;2023-06-22T00:15:23;99877.69;;;26.54;45.25
60019;BME280;45870;42.528;26.740;2023-06-22T00:17:49;99875.50;;;26.89;44.29
60019;BME280;45870;42.528;26.740;2023-06-22T00:20:15;99869.09;;;26.97;44.38
60019;BME280;45870;42.528;26.740;2023-06-22T00:22:43;99877.81;;;27.08;44.10
60019;BME280;45870;42.528;26.740;2023-06-22T00:25:10;99879.81;;;26.99;44.64
60019;BME280;45870;42.528;26.740;2023-06-22T00:27:36;99880.91;;;27.06;43.80
60019;BME280;45870;42.528;26.740;2023-06-22T00:30:02;99856.88;;;26.98;43.84
60019;BME280;45870;42.528;26.740;2023-06-22T00:32:28;99886.44;;;27.48;43.55
60019;BME280;45870;42.528;26.740;2023-06-22T00:34:54;99886.69;;;27.34;43.81
60019;BME280;45870;42.528;26.740;2023-06-22T00:37:20;99892.41;;;26.96;44.60
60019;BME280;45870;42.528;26.740;2023-06-22T00:39:51;99861.72;;;27.22;43.48
60019;BME280;45870;42.528;26.740;2023-06-22T00:42:17;99890.75;;;27.57;43.31
60019;BME280;45870;42.528;26.740;2023-06-22T00:44:43;99886.63;;;27.43;43.65
60019;BME280;45870;42.528;26.740;2023-06-22T00:47:11;99881.13;;;27.22;44.39
60019;BME280;45870;42.528;26.740;2023-06-22T00:49:38;99890.38;;;27.47;44.10
60019;BME280;45870;42.528;26.740;2023-06-22T00:52:05;99882.81;;;27.68;43.21
60019;BME280;45870;42.528;26.740;2023-06-22T00:54:36;99888.03;;;27.82;42.86
60019;BME280;45870;42.528;26.740;2023-06-22T00:57:02;99883.28;;;27.94;42.84
60019;BME280;45870;42.528;26.740;2023-06-22T00:59:27;99874.66;;;28.08;42.24
60019;BME280;45870;42.528;26.740;2023-06-22T01:01:54;99878.56;;;27.83;42.68
60019;BME280;45870;42.528;26.740;2023-06-22T01:04:24;99874.13;;;27.69;43.16
60019;BME280;45870;42.528;26.740;2023-06-22T01:09:32;99869.63;;;27.77;43.10
60019;BME280;45870;42.528;26.740;2023-06-22T01:12:03;99878.69;;;27.86;42.74
60019;BME280;45870;42.528;26.740;2023-06-22T01:14:42;99864.53;;;27.67;43.26
60019;BME280;45870;42.528;26.740;2023-06-22T01:17:11;99870.47;;;28.02;42.55
60019;BME280;45870;42.528;26.740;2023-06-22T01:19:50;99866.81;;;28.10;42.75
60019;BME280;45870;42.528;26.740;2023-06-22T01:22:24;99873.94;;;27.99;42.83
60019;BME280;45870;42.528;26.740;2023-06-22T01:27:55;99885.28;;;27.49;43.94
60019;BME280;45870;42.528;26.740;2023-06-22T01:30:23;99880.63;;;27.41;44.37
60019;BME280;45870;42.528;26.740;2023-06-22T01:32:53;99884.09;;;27.17;44.97
60019;BME280;45870;42.528;26.740;2023-06-22T01:35:20;99885.00;;;27.42;44.09
60019;BME280;45870;42.528;26.740;2023-06-22T01:37:46;99885.69;;;27.71;43.44
60019;BME280;45870;42.528;26.740;2023-06-22T01:40:13;99865.78;;;27.57;43.64
60019;BME280;45870;42.528;26.740;2023-06-22T01:42:40;99883.25;;;27.37;44.49
60019;BME280;45870;42.528;26.740;2023-06-22T01:45:10;99890.44;;;27.71;43.54
60019;BME280;45870;42.528;26.740;2023-06-22T01:47:36;99879.50;;;27.87;43.78
60019;BME280;45870;42.528;26.740;2023-06-22T01:50:03;99878.00;;;27.89;43.52
60019;BME280;45870;42.528;26.740;2023-06-22T01:52:29;99880.03;;;28.25;42.69
60019;BME280;45870;42.528;26.740;2023-06-22T01:54:54;99882.09;;;28.16;42.98
60019;BME280;45870;42.528;26.740;2023-06-22T01:57:20;99875.72;;;28.40;42.47
60019;BME280;45870;42.528;26.740;2023-06-22T02:00:02;99861.81;;;28.40;42.51
60019;BME280;45870;42.528;26.740;2023-06-22T02:02:38;99869.25;;;28.36;42.86
60019;BME280;45870;42.528;26.740;2023-06-22T02:05:09;99867.03;;;28.29;42.63
60019;BME280;45870;42.528;26.740;2023-06-22T02:08:08;99867.25;;;28.00;43.83
60019;BME280;45870;42.528;26.740;2023-06-22T02:10:36;99878.38;;;28.48;42.50
60019;BME280;45870;42.528;26.740;2023-06-22T02:13:06;99847.34;;;27.98;43.09
60019;BME280;45870;42.528;26.740;2023-06-22T02:15:32;99880.97;;;27.84;43.90
60019;BME280;45870;42.528;26.740;2023-06-22T02:17:59;99841.91;;;28.01;43.08
60019;BME280;45870;42.528;26.740;2023-06-22T02:20:25;99824.72;;;28.08;42.80
60019;BME280;45870;42.528;26.740;2023-06-22T02:22:51;99881.59;;;28.50;42.69
60019;BME280;45870;42.528;26.740;2023-06-22T02:25:16;99888.00;;;28.39;42.96
60019;BME280;45870;42.528;26.740;2023-06-22T02:27:42;99893.31;;;28.56;42.80
60019;BME280;45870;42.528;26.740;2023-06-22T02:30:09;99884.03;;;28.52;42.74
60019;BME280;45870;42.528;26.740;2023-06-22T02:32:35;99887.03;;;28.59;42.80
60019;BME280;45870;42.528;26.740;2023-06-22T02:35:01;99882.78;;;28.49;42.77
60019;BME280;45870;42.528;26.740;2023-06-22T02:37:30;99896.06;;;28.68;42.45
60019;BME280;45870;42.528;26.740;2023-06-22T02:39:56;99898.72;;;28.64;42.30
60019;BME280;45870;42.528;26.740;2023-06-22T02:42:22;99896.63;;;28.61;42.36
60019;BME280;45870;42.528;26.740;2023-06-22T02:44:47;99903.81;;;28.50;42.92
60019;BME280;45870;42.528;26.740;2023-06-22T02:47:13;99869.25;;;28.23;42.88
60019;BME280;45870;42.528;26.740;2023-06-22T02:49:39;99900.47;;;28.20;43.19
60019;BME280;45870;42.528;26.740;2023-06-22T02:52:05;99909.16;;;28.31;43.12
60019;BME280;45870;42.528;26.740;2023-06-22T02:54:30;99912.16;;;28.50;42.70
60019;BME280;45870;42.528;26.740;2023-06-22T02:56:56;99910.28;;;28.91;41.96
60019;BME280;45870;42.528;26.740;2023-06-22T02:59:22;99905.28;;;28.96;41.44
60019;BME280;45870;42.528;26.740;2023-06-22T03:01:51;99910.22;;;29.55;40.32
60019;BME280;45870;42.528;26.740;2023-06-22T03:04:17;99913.53;;;29.88;39.82
60019;BME280;45870;42.528;26.740;2023-06-22T03:06:43;99905.75;;;30.25;39.25
60019;BME280;45870;42.528;26.740;2023-06-22T03:09:09;99901.38;;;31.09;38.01
60019;BME280;45870;42.528;26.740;2023-06-22T03:11:35;99885.53;;;31.94;36.06
60019;BME280;45870;42.528;26.740;2023-06-22T03:14:01;99909.09;;;32.64;34.83
60019;BME280;45870;42.528;26.740;2023-06-22T03:16:26;99917.69;;;33.08;33.59
60019;BME280;45870;42.528;26.740;2023-06-22T03:18:52;99925.25;;;33.68;32.82
60019;BME280;45870;42.528;26.740;2023-06-22T03:21:28;99924.50;;;34.51;31.23
60019;BME280;45870;42.528;26.740;2023-06-22T03:23:54;99917.16;;;34.91;30.22
60019;BME280;45870;42.528;26.740;2023-06-22T03:26:20;99928.00;;;34.41;31.40
60019;BME280;45870;42.528;26.740;2023-06-22T03:28:46;99929.34;;;34.58;30.91
60019;BME280;45870;42.528;26.740;2023-06-22T03:31:14;99941.78;;;35.12;29.64
60019;BME280;45870;42.528;26.740;2023-06-22T03:33:39;99933.25;;;35.91;29.49
60019;BME280;45870;42.528;26.740;2023-06-22T03:36:05;99951.00;;;36.30;28.91
60019;BME280;45870;42.528;26.740;2023-06-22T03:38:32;99920.75;;;33.59;32.20
60019;BME280;45870;42.528;26.740;2023-06-22T03:40:57;99953.50;;;34.26;31.31
60019;BME280;45870;42.528;26.740;2023-06-22T03:43:23;99951.72;;;35.85;28.98
60019;BME280;45870;42.528;26.740;2023-06-22T03:45:49;99947.66;;;35.82;28.52
60019;BME280;45870;42.528;26.740;2023-06-22T03:48:15;99947.31;;;35.94;29.62
60019;BME280;45870;42.528;26.740;2023-06-22T03:50:40;99850.44;;;37.09;27.42
60019;BME280;45870;42.528;26.740;2023-06-22T03:53:06;99950.16;;;39.01;25.43
60019;BME280;45870;42.528;26.740;2023-06-22T03:55:34;99936.59;;;39.23;24.95
60019;BME280;45870;42.528;26.740;2023-06-22T03:57:59;99950.16;;;38.02;26.31
60019;BME280;45870;42.528;26.740;2023-06-22T04:00:31;99946.56;;;36.36;28.15
60019;BME280;45870;42.528;26.740;2023-06-22T04:02:57;99955.06;;;34.67;30.79
60019;BME280;45870;42.528;26.740;2023-06-22T04:05:22;99951.00;;;33.47;33.63
60019;BME280;45870;42.528;26.740;2023-06-22T04:07:49;99954.13;;;34.52;32.40
60019;BME280;45870;42.528;26.740;2023-06-22T04:10:15;99952.41;;;37.51;27.97
60019;BME280;45870;42.528;26.740;2023-06-22T04:12:41;99952.50;;;40.04;23.79
60019;BME280;45870;42.528;26.740;2023-06-22T04:15:07;99956.59;;;40.76;23.32
60019;BME280;45870;42.528;26.740;2023-06-22T04:17:32;99961.09;;;42.12;21.64
60019;BME280;45870;42.528;26.740;2023-06-22T04:19:58;99960.06;;;43.15;19.98
60019;BME280;45870;42.528;26.740;2023-06-22T04:22:23;99962.50;;;43.58;19.19
60019;BME280;45870;42.528;26.740;2023-06-22T04:24:49;99967.75;;;43.72;19.12
60019;BME280;45870;42.528;26.740;2023-06-22T04:27:17;99959.63;;;42.72;20.66
60019;BME280;45870;42.528;26.740;2023-06-22T04:29:43;99953.53;;;42.05;21.32
60019;BME280;45870;42.528;26.740;2023-06-22T04:32:17;99953.69;;;41.82;21.00
60019;BME280;45870;42.528;26.740;2023-06-22T04:34:44;99961.50;;;40.72;22.60
60019;BME280;45870;42.528;26.740;2023-06-22T04:37:10;99955.94;;;41.91;21.01
60019;BME280;45870;42.528;26.740;2023-06-22T04:39:41;99926.09;;;41.47;21.33
60019;BME280;45870;42.528;26.740;2023-06-22T04:42:07;99955.16;;;41.51;20.96
60019;BME280;45870;42.528;26.740;2023-06-22T04:44:33;99958.03;;;42.22;20.11
60019;BME280;45870;42.528;26.740;2023-06-22T04:47:01;99961.59;;;41.91;20.74
60019;BME280;45870;42.528;26.740;2023-06-22T04:49:29;99966.28;;;42.33;20.28
60019;BME280;45870;42.528;26.740;2023-06-22T04:51:59;99957.31;;;42.34;20.43
60019;BME280;45870;42.528;26.740;2023-06-22T04:54:25;99966.59;;;43.28;18.93
60019;BME280;45870;42.528;26.740;2023-06-22T04:56:52;99963.53;;;41.58;20.85
60019;BME280;45870;42.528;26.740;2023-06-22T04:59:24;99955.53;;;43.18;18.99
60019;BME280;45870;42.528;26.740;2023-06-22T05:02:01;99954.38;;;40.14;21.87
60019;BME280;45870;42.528;26.740;2023-06-22T05:04:29;99978.50;;;42.95;19.67
60019;BME280;45870;42.528;26.740;2023-06-22T05:06:59;99972.16;;;41.51;20.78
60019;BME280;45870;42.528;26.740;2023-06-22T05:09:26;99972.91;;;39.21;23.47
60019;BME280;45870;42.528;26.740;2023-06-22T05:11:52;99885.84;;;37.02;25.67
60019;BME280;45870;42.528;26.740;2023-06-22T05:14:18;99969.06;;;38.63;24.33
60019;BME280;45870;42.528;26.740;2023-06-22T05:16:45;99977.88;;;37.09;26.55
60019;BME280;45870;42.528;26.740;2023-06-22T05:19:11;99983.09;;;38.15;24.64
60019;BME280;45870;42.528;26.740;2023-06-22T05:21:38;99923.22;;;36.96;26.15
60019;BME280;45870;42.528;26.740;2023-06-22T05:24:04;99977.44;;;40.13;22.70
60019;BME280;45870;42.528;26.740;2023-06-22T05:26:32;99948.88;;;40.04;22.19
60019;BME280;45870;42.528;26.740;2023-06-22T05:28:59;99984.94;;;40.23;22.98
60019;BME280;45870;42.528;26.740;2023-06-22T05:31:26;99994.19;;;40.50;22.35
60019;BME280;45870;42.528;26.740;2023-06-22T05:33:53;99985.59;;;39.06;25.01
60019;BME280;45870;42.528;26.740;2023-06-22T05:36:19;99989.94;;;36.88;26.17
60019;BME280;45870;42.528;26.740;2023-06-22T05:38:47;99979.91;;;36.94;26.83
60019;BME280;45870;42.528;26.740;2023-06-22T05:41:13;99981.78;;;37.61;26.00
60019;BME280;45870;42.528;26.740;2023-06-22T05:43:39;99986.94;;;39.31;24.01
60019;BME280;45870;42.528;26.740;2023-06-22T05:46:06;99981.75;;;40.21;22.00
60019;BME280;45870;42.528;26.740;2023-06-22T05:48:32;99987.31;;;39.67;23.16
60019;BME280;45870;42.528;26.740;2023-06-22T05:50:58;99982.34;;;40.35;22.56
60019;BME280;45870;42.528;26.740;2023-06-22T05:53:24;99949.47;;;43.03;19.30
60019;BME280;45870;42.528;26.740;2023-06-22T05:55:50;99978.97;;;42.77;19.78
60019;BME280;45870;42.528;26.740;2023-06-22T05:58:16;99985.50;;;43.06;19.69
60019;BME280;45870;42.528;26.740;2023-06-22T06:00:42;99987.47;;;42.45;20.14
60019;BME280;45870;42.528;26.740;2023-06-22T06:03:09;99978.66;;;39.51;23.25
60019;BME280;45870;42.528;26.740;2023-06-22T06:05:35;99979.78;;;40.68;22.01
60019;BME280;45870;42.528;26.740;2023-06-22T06:08:02;99985.63;;;41.04;20.75
60019;BME280;45870;42.528;26.740;2023-06-22T06:10:30;99985.22;;;40.32;20.45
60019;BME280;45870;42.528;26.740;2023-06-22T06:12:56;99990.34;;;38.68;23.30
60019;BME280;45870;42.528;26.740;2023-06-22T06:15:22;99949.28;;;40.02;20.58
60019;BME280;45870;42.528;26.740;2023-06-22T06:17:49;99986.25;;;38.28;21.90
60019;BME280;45870;42.528;26.740;2023-06-22T06:20:17;99987.75;;;38.43;21.90
60019;BME280;45870;42.528;26.740;2023-06-22T06:22:43;99992.25;;;37.57;22.92
60019;BME280;45870;42.528;26.740;2023-06-22T06:25:09;99980.97;;;37.57;23.04
60019;BME280;45870;42.528;26.740;2023-06-22T06:27:35;99985.13;;;36.32;23.65
60019;BME280;45870;42.528;26.740;2023-06-22T06:30:01;99983.63;;;35.45;24.71
60019;BME280;45870;42.528;26.740;2023-06-22T06:32:27;99975.38;;;37.43;22.55
60019;BME280;45870;42.528;26.740;2023-06-22T06:34:52;99986.84;;;37.91;21.77
60019;BME280;45870;42.528;26.740;2023-06-22T06:37:18;99981.75;;;35.67;24.35
60019;BME280;45870;42.528;26.740;2023-06-22T06:39:44;99972.91;;;35.75;25.02
60019;BME280;45870;42.528;26.740;2023-06-22T06:42:10;99972.28;;;36.21;25.20
60019;BME280;45870;42.528;26.740;2023-06-22T06:44:36;99981.38;;;37.56;23.10
60019;BME280;45870;42.528;26.740;2023-06-22T06:47:04;99981.88;;;39.16;20.51
60019;BME280;45870;42.528;26.740;2023-06-22T06:49:29;99970.16;;;37.38;22.32
60019;BME280;45870;42.528;26.740;2023-06-22T06:51:55;99953.41;;;38.55;21.83
60019;BME280;45870;42.528;26.740;2023-06-22T06:54:21;99970.19;;;38.18;21.08
60019;BME280;45870;42.528;26.740;2023-06-22T06:56:47;99972.41;;;39.33;20.56
60019;BME280;45870;42.528;26.740;2023-06-22T06:59:14;99975.81;;;38.21;21.27
60019;BME280;45870;42.528;26.740;2023-06-22T07:01:41;99940.22;;;39.27;20.42
60019;BME280;45870;42.528;26.740;2023-06-22T07:04:07;99966.09;;;38.26;21.81
60019;BME280;45870;42.528;26.740;2023-06-22T07:06:32;99969.69;;;39.22;20.69
60019;BME280;45870;42.528;26.740;2023-06-22T07:08:59;99966.28;;;39.01;19.96
60019;BME280;45870;42.528;26.740;2023-06-22T07:11:25;99969.75;;;41.49;18.64
60019;BME280;45870;42.528;26.740;2023-06-22T07:13:50;99960.69;;;38.53;21.30
60019;BME280;45870;42.528;26.740;2023-06-22T07:16:16;99968.59;;;39.13;19.15
60019;BME280;45870;42.528;26.740;2023-06-22T07:18:42;99947.69;;;40.28;18.49
60019;BME280;45870;42.528;26.740;2023-06-22T07:21:07;99842.19;;;38.08;20.63
60019;BME280;45870;42.528;26.740;2023-06-22T07:23:34;99924.53;;;39.19;20.10
60019;BME280;45870;42.528;26.740;2023-06-22T07:26:00;99964.50;;;38.25;21.29
60019;BME280;45870;42.528;26.740;2023-06-22T07:28:27;99960.81;;;40.88;16.65
60019;BME280;45870;42.528;26.740;2023-06-22T07:30:54;99981.34;;;39.28;19.29
60019;BME280;45870;42.528;26.740;2023-06-22T07:33:20;99978.34;;;39.42;19.03
60019;BME280;45870;42.528;26.740;2023-06-22T07:35:46;99968.28;;;40.02;18.74
60019;BME280;45870;42.528;26.740;2023-06-22T07:38:13;99976.94;;;39.27;19.33
60019;BME280;45870;42.528;26.740;2023-06-22T07:40:39;99969.47;;;40.54;18.29
60019;BME280;45870;42.528;26.740;2023-06-22T07:43:07;99964.91;;;38.75;21.25
60019;BME280;45870;42.528;26.740;2023-06-22T07:45:32;99962.66;;;41.41;17.50
60019;BME280;45870;42.528;26.740;2023-06-22T07:48:00;99951.34;;;40.52;19.21
60019;BME280;45870;42.528;26.740;2023-06-22T07:50:26;99954.19;;;40.98;18.40
60019;BME280;45870;42.528;26.740;2023-06-22T07:52:52;99954.06;;;40.59;19.57
60019;BME280;45870;42.528;26.740;2023-06-22T07:55:18;99956.09;;;40.58;19.98
60019;BME280;45870;42.528;26.740;2023-06-22T07:57:44;99962.38;;;39.25;20.61
60019;BME280;45870;42.528;26.740;2023-06-22T08:00:10;99952.97;;;42.46;17.19
60019;BME280;45870;42.528;26.740;2023-06-22T08:02:40;99915.72;;;40.54;19.17
60019;BME280;45870;42.528;26.740;2023-06-22T08:05:07;99946.63;;;39.91;20.48
60019;BME280;45870;42.528;26.740;2023-06-22T08:07:37;99954.97;;;40.75;19.64
60019;BME280;45870;42.528;26.740;2023-06-22T08:10:04;99948.06;;;41.78;17.16
60019;BME280;45870;42.528;26.740;2023-06-22T08:12:30;99953.66;;;42.82;16.49
60019;BME280;45870;42.528;26.740;2023-06-22T08:14:55;99940.44;;;40.00;20.35
60019;BME280;45870;42.528;26.740;2023-06-22T08:17:25;99939.53;;;41.98;18.15
60019;BME280;45870;42.528;26.740;2023-06-22T08:19:53;99942.41;;;42.30;17.19
60019;BME280;45870;42.528;26.740;2023-06-22T08:22:18;99930.25;;;41.98;17.78
60019;BME280;45870;42.528;26.740;2023-06-22T08:24:44;99939.47;;;40.83;18.25
60019;BME280;45870;42.528;26.740;2023-06-22T08:27:10;99938.91;;;40.46;19.65
60019;BME280;45870;42.528;26.740;2023-06-22T08:29:40;99943.09;;;40.11;19.24
60019;BME280;45870;42.528;26.740;2023-06-22T08:32:11;99950.38;;;40.08;19.84
60019;BME280;45870;42.528;26.740;2023-06-22T08:34:37;99954.47;;;40.34;19.13
60019;BME280;45870;42.528;26.740;2023-06-22T08:37:08;99894.38;;;40.73;18.38
60019;BME280;45870;42.528;26.740;2023-06-22T08:39:34;99952.22;;;38.53;20.89
60019;BME280;45870;42.528;26.740;2023-06-22T08:41:59;99947.19;;;42.17;17.74
60019;BME280;45870;42.528;26.740;2023-06-22T08:44:25;99924.25;;;38.69;20.88
60019;BME280;45870;42.528;26.740;2023-06-22T08:46:51;99942.13;;;38.04;22.07
60019;BME280;45870;42.528;26.740;2023-06-22T08:49:17;99932.47;;;38.53;21.33
60019;BME280;45870;42.528;26.740;2023-06-22T08:51:42;99937.78;;;41.09;18.49
60019;BME280;45870;42.528;26.740;2023-06-22T08:54:11;99946.41;;;37.53;21.87
60019;BME280;45870;42.528;26.740;2023-06-22T08:56:37;99948.28;;;37.77;21.44
60019;BME280;45870;42.528;26.740;2023-06-22T08:59:02;99947.88;;;37.79;20.92
60019;BME280;45870;42.528;26.740;2023-06-22T09:01:28;99939.22;;;38.62;21.18
60019;BME280;45870;42.528;26.740;2023-06-22T09:03:54;99927.41;;;40.06;19.45
60019;BME280;45870;42.528;26.740;2023-06-22T09:06:23;99918.38;;;40.18;18.67
60019;BME280;45870;42.528;26.740;2023-06-22T09:08:50;99897.25;;;42.97;15.78
60019;BME280;45870;42.528;26.740;2023-06-22T09:11:15;99930.31;;;40.53;18.39
60019;BME280;45870;42.528;26.740;2023-06-22T09:13:41;99931.84;;;40.57;18.73
60019;BME280;45870;42.528;26.740;2023-06-22T09:16:07;99937.78;;;40.39;18.63
60019;BME280;45870;42.528;26.740;2023-06-22T09:18:34;99938.31;;;38.72;20.87
60019;BME280;45870;42.528;26.740;2023-06-22T09:20:59;99914.06;;;38.78;20.48
60019;BME280;45870;42.528;26.740;2023-06-22T09:23:25;99940.31;;;38.75;21.51
60019;BME280;45870;42.528;26.740;2023-06-22T09:25:50;99943.28;;;38.58;21.34
60019;BME280;45870;42.528;26.740;2023-06-22T09:28:16;99917.53;;;38.00;21.26
60019;BME280;45870;42.528;26.740;2023-06-22T09:30:45;99948.28;;;38.36;22.06
60019;BME280;45870;42.528;26.740;2023-06-22T09:33:11;99932.13;;;40.16;19.94
60019;BME280;45870;42.528;26.740;2023-06-22T09:35:36;99945.19;;;40.07;18.85
60019;BME280;45870;42.528;26.740;2023-06-22T09:38:02;99935.31;;;36.72;22.75
60019;BME280;45870;42.528;26.740;2023-06-22T09:40:27;99929.69;;;36.08;23.02
60019;BME280;45870;42.528;26.740;2023-06-22T09:42:53;99944.00;;;37.37;21.38
60019;BME280;45870;42.528;26.740;2023-06-22T09:45:19;99931.75;;;38.86;21.31
60019;BME280;45870;42.528;26.740;2023-06-22T09:47:45;99925.19;;;39.33;19.68
60019;BME280;45870;42.528;26.740;2023-06-22T09:50:10;99922.13;;;39.81;19.52
60019;BME280;45870;42.528;26.740;2023-06-22T09:52:36;99909.84;;;39.65;19.93
60019;BME280;45870;42.528;26.740;2023-06-22T09:55:02;99899.19;;;40.96;18.04
60019;BME280;45870;42.528;26.740;2023-06-22T09:57:29;99910.56;;;39.72;18.61
60019;BME280;45870;42.528;26.740;2023-06-22T09:59:54;99875.75;;;37.16;22.57
60019;BME280;45870;42.528;26.740;2023-06-22T10:02:21;99912.06;;;40.07;19.76
60019;BME280;45870;42.528;26.740;2023-06-22T10:04:47;99907.34;;;39.70;19.88
60019;BME280;45870;42.528;26.740;2023-06-22T10:07:13;99880.91;;;41.00;17.68
60019;BME280;45870;42.528;26.740;2023-06-22T10:09:39;99920.59;;;41.20;18.00
60019;BME280;45870;42.528;26.740;2023-06-22T10:12:05;99914.13;;;40.96;18.26
60019;BME280;45870;42.528;26.740;2023-06-22T10:14:30;99913.19;;;40.36;18.90
60019;BME280;45870;42.528;26.740;2023-06-22T10:16:56;99912.53;;;40.02;19.52
60019;BME280;45870;42.528;26.740;2023-06-22T10:19:22;99900.31;;;39.52;20.29
60019;BME280;45870;42.528;26.740;2023-06-22T10:21:47;99912.00;;;39.84;20.43
60019;BME280;45870;42.528;26.740;2023-06-22T10:24:13;99904.97;;;38.12;21.77
60019;BME280;45870;42.528;26.740;2023-06-22T10:26:40;99873.41;;;39.10;19.85
60019;BME280;45870;42.528;26.740;2023-06-22T10:29:06;99880.72;;;36.23;24.02
60019;BME280;45870;42.528;26.740;2023-06-22T10:31:32;99900.56;;;37.42;22.52
60019;BME280;45870;42.528;26.740;2023-06-22T10:33:57;99873.66;;;37.27;22.11
60019;BME280;45870;42.528;26.740;2023-06-22T10:39:32;99888.38;;;38.25;21.86
60019;BME280;45870;42.528;26.740;2023-06-22T10:41:57;99895.09;;;37.83;21.38
60019;BME280;45870;42.528;26.740;2023-06-22T10:44:23;99889.16;;;36.62;22.66
60019;BME280;45870;42.528;26.740;2023-06-22T10:46:48;99888.31;;;37.73;21.84
60019;BME280;45870;42.528;26.740;2023-06-22T10:49:14;99863.63;;;37.26;23.05
60019;BME280;45870;42.528;26.740;2023-06-22T10:51:40;99864.59;;;37.74;22.45
60019;BME280;45870;42.528;26.740;2023-06-22T10:54:06;99874.41;;;38.11;22.18
60019;BME280;45870;42.528;26.740;2023-06-22T10:56:32;99888.53;;;38.07;21.89
60019;BME280;45870;42.528;26.740;2023-06-22T10:58:59;99891.06;;;37.08;23.04
60019;BME280;45870;42.528;26.740;2023-06-22T11:01:24;99880.44;;;37.43;22.76
60019;BME280;45870;42.528;26.740;2023-06-22T11:03:50;99852.09;;;37.75;22.58
60019;BME280;45870;42.528;26.740;2023-06-22T11:06:15;99894.44;;;37.61;22.10
60019;BME280;45870;42.528;26.740;2023-06-22T11:08:44;99881.00;;;36.99;23.01
60019;BME280;45870;42.528;26.740;2023-06-22T11:11:09;99894.91;;;39.00;20.13
60019;BME280;45870;42.528;26.740;2023-06-22T11:13:35;99894.88;;;37.56;21.75
60019;BME280;45870;42.528;26.740;2023-06-22T11:16:01;99885.44;;;38.39;21.00
60019;BME280;45870;42.528;26.740;2023-06-22T11:18:28;99880.63;;;38.32;21.10
60019;BME280;45870;42.528;26.740;2023-06-22T11:20:53;99890.53;;;38.95;19.72
60019;BME280;45870;42.528;26.740;2023-06-22T11:23:19;99887.41;;;38.45;20.98
60019;BME280;45870;42.528;26.740;2023-06-22T11:25:45;99897.81;;;35.54;23.54
60019;BME280;45870;42.528;26.740;2023-06-22T11:28:11;99888.69;;;34.85;25.07
60019;BME280;45870;42.528;26.740;2023-06-22T11:30:37;99877.09;;;36.33;23.71
60019;BME280;45870;42.528;26.740;2023-06-22T11:33:02;99885.53;;;36.23;23.83
60019;BME280;45870;42.528;26.740;2023-06-22T11:35:28;99901.91;;;35.68;24.50
60019;BME280;45870;42.528;26.740;2023-06-22T11:37:54;99888.72;;;36.25;24.41
60019;BME280;45870;42.528;26.740;2023-06-22T11:40:21;99893.84;;;37.94;21.45
60019;BME280;45870;42.528;26.740;2023-06-22T11:42:48;99880.94;;;37.21;21.99
60019;BME280;45870;42.528;26.740;2023-06-22T11:45:13;99875.91;;;36.56;22.96
60019;BME280;45870;42.528;26.740;2023-06-22T11:47:39;99878.72;;;36.20;23.43
60019;BME280;45870;42.528;26.740;2023-06-22T11:50:06;99879.91;;;36.37;23.76
60019;BME280;45870;42.528;26.740;2023-06-22T11:52:33;99887.09;;;36.84;22.00
60019;BME280;45870;42.528;26.740;2023-06-22T11:54:59;99882.25;;;36.84;22.67
60019;BME280;45870;42.528;26.740;2023-06-22T11:57:25;99879.06;;;36.75;23.65
60019;BME280;45870;42.528;26.740;2023-06-22T11:59:50;99874.63;;;37.79;21.24
60019;BME280;45870;42.528;26.740;2023-06-22T12:02:16;99877.38;;;37.02;22.10
60019;BME280;45870;42.528;26.740;2023-06-22T12:04:41;99874.78;;;37.47;22.19
60019;BME280;45870;42.528;26.740;2023-06-22T12:07:07;99871.09;;;38.64;21.83
60019;BME280;45870;42.528;26.740;2023-06-22T12:09:39;99872.41;;;38.04;21.57
60019;BME280;45870;42.528;26.740;2023-06-22T12:12:05;99870.25;;;36.70;23.01
60019;BME280;45870;42.528;26.740;2023-06-22T12:14:31;99862.50;;;37.06;22.86
60019;BME280;45870;42.528;26.740;2023-06-22T12:16:56;99866.13;;;36.95;22.86
60019;BME280;45870;42.528;26.740;2023-06-22T12:19:22;99871.81;;;36.78;22.62
60019;BME280;45870;42.528;26.740;2023-06-22T12:21:47;99851.00;;;36.33;23.28
60019;BME280;45870;42.528;26.740;2023-06-22T12:24:13;99866.66;;;36.20;22.76
60019;BME280;45870;42.528;26.740;2023-06-22T12:26:39;99858.56;;;36.75;23.35
60019;BME280;45870;42.528;26.740;2023-06-22T12:29:04;99863.31;;;36.99;22.34
60019;BME280;45870;42.528;26.740;2023-06-22T12:31:30;99843.59;;;36.99;21.72
60019;BME280;45870;42.528;26.740;2023-06-22T12:33:55;99864.44;;;37.92;21.28
60019;BME280;45870;42.528;26.740;2023-06-22T12:36:21;99853.44;;;36.17;23.12
60019;BME280;45870;42.528;26.740;2023-06-22T12:38:47;99859.69;;;37.06;21.94
60019;BME280;45870;42.528;26.740;2023-06-22T12:41:13;99858.72;;;37.37;20.35
60019;BME280;45870;42.528;26.740;2023-06-22T12:43:38;99858.28;;;37.45;20.90
60019;BME280;45870;42.528;26.740;2023-06-22T12:52:47;99818.38;;;38.57;19.66
60019;BME280;45870;42.528;26.740;2023-06-22T12:55:13;99840.47;;;40.60;18.11
60019;BME280;45870;42.528;26.740;2023-06-22T12:57:38;99828.97;;;39.48;19.62
60019;BME280;45870;42.528;26.740;2023-06-22T13:00:05;99839.72;;;38.95;18.08
60019;BME280;45870;42.528;26.740;2023-06-22T13:02:32;99846.13;;;36.76;20.97